Latest Weather Observations for Fitzroy Crossing

IDW60801

Issued at 3:35 pm WST Friday 22 August 2014 (issued every 30 minutes, with the page automatically refreshed every 10 minutes)

About weather observations | Map of weather stations | Latest weather observations for WA | Other Formats
Station Details ID: 003093 Name: FITZROY CROSSING AERO Lat: -18.18 Lon: 125.56 Height: 114.5 m
Data from the previous 72 hours. | See also: Recent months at Fitzroy Crossing
Date/Time
WST
Temp
°C
App
Temp
°C
Dew
Point
Rel
Hum
%
Delta-T
°C
Wind Press
QNH
hPa
Press
MSL
hPa
Rain
since 9 am
mm
Dir
 
Spd
km/h
Gust
km/h
Spd
kts
Gust
kts
22/03:30pm 31.0 25.0 -7.1 8 16.3 SSE 17 26 9 14 1013.9 1013.4 0.0
22/03:00pm 31.1 23.7 -7.0 8 16.3 SSE 24 33 13 18 1013.7 1013.3 0.0
22/02:30pm 31.2 25.2 -6.9 8 16.4 SSE 17 32 9 17 1014.1 1013.6 0.0
22/02:00pm 31.5 25.5 -6.7 8 16.5 SSE 17 30 9 16 1014.3 1013.8 0.0
22/01:30pm 31.5 26.6 -6.7 8 16.5 SSE 11 24 6 13 1014.7 1014.2 0.0
22/01:00pm 31.1 25.8 -7.0 8 16.3 SSE 13 28 7 15 1015.1 1014.6 0.0
22/12:30pm 30.7 25.9 -5.8 9 15.9 SE 11 20 6 11 1015.7 1015.2 0.0
22/12:00pm 29.9 25.4 -6.4 9 15.5 ENE 9 13 5 7 1016.6 1016.1 0.0
22/11:30am 29.6 23.6 -6.6 9 15.4 ENE 17 28 9 15 1017.3 1016.8 0.0
22/11:00am 28.9 22.3 -7.1 9 15.1 E 20 28 11 15 1018.0 1017.5 0.0
22/10:30am 29.0 21.6 -7.0 9 15.2 ENE 24 32 13 17 1018.5 1018.0 0.0
22/10:00am 28.4 20.7 -6.1 10 14.6 ENE 26 39 14 21 1019.0 1018.5 0.0
22/09:30am 27.4 20.2 -5.6 11 14.0 ENE 24 32 13 17 1019.4 1018.9 0.0
22/09:00am 26.3 18.7 -5.3 12 13.4 ENE 26 41 14 22 1019.6 1019.1 0.0
22/08:30am 25.9 19.7 -4.6 13 13.0 ENE 19 28 10 15 1019.5 1019.0 0.0
22/08:00am 24.4 19.1 -3.9 15 12.1 E 15 20 8 11 1019.2 1018.7 0.0
22/07:30am 22.4 16.7 -3.8 17 11.0 ENE 17 24 9 13 1019.0 1018.5 0.0
22/07:00am 20.5 15.6 -3.2 20 9.9 E 13 17 7 9 1018.7 1018.2 0.0
22/06:30am 17.3 12.6 -1.9 27 8.0 E 13 15 7 8 1018.3 1017.8 0.0
22/06:00am 14.7 10.2 -3.1 29 7.0 E 11 13 6 7 1017.9 1017.4 0.0
22/05:30am 14.2 11.8 -3.1 30 6.8 CALM 0 7 0 4 1017.7 1017.2 0.0
22/05:00am 13.5 11.1 -3.3 31 6.5 CALM 0 0 0 0 1017.1 1016.6 0.0
22/04:30am 13.8 11.4 -3.5 30 6.7 CALM 0 0 0 0 1016.5 1016.0 0.0
22/04:00am 12.2 9.8 -3.2 34 5.9 CALM 0 0 0 0 1016.2 1015.7 0.0
22/03:30am 13.7 10.2 -3.1 31 6.6 NE 6 7 3 4 1015.9 1015.4 0.0
22/03:00am 13.4 10.9 -4.2 29 6.7 CALM 0 0 0 0 1015.5 1015.0 0.0
22/02:30am 15.3 11.7 -3.6 27 7.4 E 6 9 3 5 1015.4 1014.9 0.0
22/02:00am 15.3 11.5 -3.6 27 7.4 ENE 7 9 4 5 1015.5 1015.0 0.0
22/01:30am 15.1 11.2 -4.2 26 7.5 NNE 7 9 4 5 1015.7 1015.2 0.0
22/01:00am 18.9 14.3 -4.5 20 9.4 E 11 13 6 7 1015.7 1015.2 0.0
22/12:30am 19.7 14.6 -5.3 18 9.9 E 13 17 7 9 1015.8 1015.3 0.0
22/12:00am 20.4 15.3 -5.4 17 10.3 ESE 13 20 7 11 1015.9 1015.4 0.0
 
Date/Time
WST
Temp
°C
App
Temp
°C
Dew
Point
Rel
Hum
%
Delta-T
°C
Wind Press
QNH
hPa
Press
MSL
hPa
Rain
since 9 am
mm
Dir
 
Spd
km/h
Gust
km/h
Spd
kts
Gust
kts
21/11:30pm 21.0 15.2 -5.0 17 10.5 ESE 17 20 9 11 1016.1 1015.6 0.0
21/11:00pm 20.4 15.4 -4.0 19 10.0 ESE 13 17 7 9 1016.1 1015.6 0.0
21/10:30pm 19.1 14.2 -3.7 21 9.3 SE 13 15 7 8 1016.1 1015.6 0.0
21/10:00pm 18.6 14.1 -2.9 23 8.9 ESE 11 13 6 7 1016.3 1015.8 0.0
21/09:30pm 20.0 15.9 -3.0 21 9.6 SE 9 11 5 6 1016.4 1015.9 0.0
21/09:00pm 21.2 16.7 -3.3 19 10.3 SE 11 11 6 6 1016.2 1015.7 0.0
21/08:30pm 21.9 17.7 -4.2 17 10.8 ESE 9 11 5 6 1016.1 1015.6 0.0
21/08:00pm 22.2 17.7 -3.2 18 10.8 SE 11 13 6 7 1015.9 1015.4 0.0
21/07:30pm 23.7 18.7 -4.4 15 11.8 SE 13 13 7 7 1015.7 1015.2 0.0
21/07:00pm 24.5 19.9 -3.8 15 12.1 SE 11 13 6 7 1015.4 1014.9 0.0
21/06:30pm 25.3 21.3 -2.3 16 12.3 SE 9 13 5 7 1015.1 1014.6 0.0
21/06:00pm 26.3 22.2 -3.3 14 13.0 ESE 9 11 5 6 1014.8 1014.3 0.0
21/05:30pm 28.1 24.2 -5.1 11 14.3 SSE 7 7 4 4 1014.3 1013.8 0.0
21/05:00pm 30.2 26.2 -6.1 9 15.7 SE 7 9 4 5 1014.1 1013.6 0.0
21/04:30pm 31.1 26.4 -5.5 9 16.1 S 11 19 6 10 1013.6 1013.2 0.0
21/04:00pm 31.4 26.9 -6.8 8 16.5 ESE 9 17 5 9 1013.3 1012.9 0.0
21/03:30pm 31.4 26.5 -6.8 8 16.5 SE 11 17 6 9 1013.3 1012.9 0.0
21/03:00pm 32.3 28.4 -4.6 9 16.6 SE 7 17 4 9 1013.2 1012.8 0.0
21/02:30pm 32.2 28.1 -6.2 8 16.9 NW 7 11 4 6 1013.4 1013.0 0.0
21/02:00pm 31.5 27.5 -5.2 9 16.3 ESE 7 13 4 7 1013.7 1013.3 0.0
21/01:30pm 31.5 27.5 -5.2 9 16.3 N 7 17 4 9 1014.2 1013.7 0.0
21/01:00pm 31.4 26.3 -5.2 9 16.2 ENE 13 22 7 12 1014.5 1014.0 0.0
21/12:30pm 30.6 25.4 -5.8 9 15.9 ENE 13 24 7 13 1015.0 1014.5 0.0
21/12:00pm 30.6 25.6 -4.5 10 15.6 NE 13 24 7 13 1015.5 1015.0 0.0
21/11:30am 30.6 24.1 -5.8 9 15.9 E 20 26 11 14 1016.0 1015.5 0.0
21/11:00am 30.2 24.0 -3.5 11 15.2 E 20 32 11 17 1016.4 1015.9 0.0
21/10:30am 29.9 23.8 -2.6 12 14.9 ENE 20 30 11 16 1016.8 1016.3 0.0
21/10:00am 28.9 22.4 -2.3 13 14.2 E 22 33 12 18 1017.1 1016.6 0.0
21/09:30am 27.2 20.8 -1.7 15 13.2 NE 22 30 12 16 1017.6 1017.1 0.0
21/09:00am 26.0 20.9 -1.7 16 12.5 ENE 15 24 8 13 1017.7 1017.2 0.0
21/08:30am 23.7 19.1 -1.3 19 11.2 E 13 20 7 11 1017.7 1017.2 0.0
21/08:00am 20.8 16.2 -1.1 23 9.6 E 13 15 7 8 1017.4 1016.9 0.0
21/07:30am 18.1 14.2 -1.7 26 8.4 E 9 11 5 6 1017.2 1016.7 0.0
21/07:00am 16.0 12.3 -3.0 27 7.6 E 7 9 4 5 1016.9 1016.4 0.0
21/06:30am 13.9 10.3 -2.1 33 6.4 ESE 7 7 4 4 1016.5 1016.0 0.0
21/06:00am 12.4 8.4 -1.9 37 5.7 E 9 11 5 6 1016.1 1015.6 0.0
21/05:30am 11.9 9.7 -1.6 39 5.4 CALM 0 0 0 0 1015.6 1015.1 0.0
21/05:00am 11.7 8.3 -1.8 39 5.3 E 6 7 3 4 1015.4 1014.9 0.0
21/04:30am 10.9 8.0 -4.3 34 5.6 E 2 9 1 5 1015.3 1014.8 0.0
21/04:00am 13.8 10.1 -2.6 32 6.5 ENE 7 7 4 4 1015.2 1014.7 0.0
21/03:30am 13.4 9.8 -3.4 31 6.5 E 6 7 3 4 1015.0 1014.5 0.0
21/03:00am 13.7 10.1 -3.5 30 6.7 NE 6 7 3 4 1014.9 1014.4 0.0
21/02:30am 12.6 9.8 -3.6 32 6.2 N 2 6 1 3 1014.9 1014.4 0.0
21/02:00am 13.2 9.5 -4.4 29 6.7 N 6 6 3 3 1015.0 1014.5 0.0
21/01:30am 13.8 10.0 -3.9 29 6.8 N 7 9 4 5 1015.1 1014.6 0.0
21/01:00am 13.8 11.3 -4.4 28 6.9 CALM 0 6 0 3 1015.1 1014.6 0.0
21/12:30am 14.5 10.6 -4.7 26 7.3 N 7 9 4 5 1015.1 1014.6 0.0
21/12:00am 15.4 13.0 -3.5 27 7.5 CALM 0 0 0 0 1015.3 1014.8 0.0
 
Date/Time
WST
Temp
°C
App
Temp
°C
Dew
Point
Rel
Hum
%
Delta-T
°C
Wind Press
QNH
hPa
Press
MSL
hPa
Rain
since 9 am
mm
Dir
 
Spd
km/h
Gust
km/h
Spd
kts
Gust
kts
20/11:30pm 15.4 13.0 -3.5 27 7.5 CALM 0 0 0 0 1015.3 1014.8 0.0
20/11:00pm 15.5 13.1 -3.4 27 7.5 CALM 0 0 0 0 1015.4 1014.9 0.0
20/10:30pm 16.4 13.2 -3.7 25 8.0 N 4 7 2 4 1015.6 1015.1 0.0
20/10:00pm 18.8 15.2 -4.0 21 9.2 ESE 6 7 3 4 1015.6 1015.1 0.0
20/09:30pm 19.5 15.4 -3.4 21 9.5 SE 9 9 5 5 1015.7 1015.2 0.0
20/09:00pm 21.0 16.0 -4.2 18 10.4 SE 13 15 7 8 1015.7 1015.2 0.0
20/08:30pm 21.0 16.6 -2.8 20 10.1 SE 11 13 6 7 1015.8 1015.3 0.0
20/08:00pm 21.7 17.2 -2.9 19 10.5 ESE 11 11 6 6 1015.7 1015.2 0.0
20/07:30pm 23.0 18.0 -4.1 16 11.4 SE 13 15 7 8 1015.3 1014.8 0.0
20/07:00pm 24.4 19.8 -3.9 15 12.1 SE 11 11 6 6 1015.1 1014.6 0.0
20/06:30pm 24.6 20.6 -2.0 17 11.8 SE 9 11 5 6 1014.8 1014.3 0.0
20/06:00pm 25.9 22.4 -2.7 15 12.7 E 6 7 3 4 1014.5 1014.0 0.0
20/05:30pm 27.2 23.5 -4.6 12 13.8 E 6 7 3 4 1014.2 1013.7 0.0
20/05:00pm 29.5 25.7 -5.3 10 15.2 E 6 9 3 5 1014.0 1013.5 0.0
20/04:30pm 30.4 26.0 -6.0 9 15.8 E 9 13 5 7 1013.6 1013.2 0.0
20/04:00pm 30.4 25.8 -7.5 8 16.0 NE 9 17 5 9 1013.4 1013.0 0.0
20/03:30pm 31.0 26.9 -7.1 8 16.3 S 7 13 4 7 1013.4 1013.0 0.0
20/03:00pm 30.8 26.0 -5.7 9 16.0 NNE 11 17 6 9 1013.4 1013.0 0.0
20/02:30pm 30.8 26.4 -5.7 9 16.0 ESE 9 20 5 11 1013.6 1013.2 0.0
20/02:00pm 30.4 26.4 -6.0 9 15.8 ESE 7 17 4 9 1013.9 1013.4 0.0
20/01:30pm 30.6 25.4 -5.8 9 15.9 N 13 19 7 10 1014.3 1013.8 0.0
20/01:00pm 30.6 25.4 -5.8 9 15.9 NE 13 20 7 11 1014.8 1014.3 0.0
20/12:30pm 30.0 25.9 -6.3 9 15.6 SSW 7 11 4 6 1015.4 1014.9 0.0
20/12:00pm 29.8 25.5 -5.1 10 15.3 E 9 13 5 7 1015.9 1015.4 0.0
20/11:30am 29.5 24.0 -5.3 10 15.2 E 15 24 8 13 1016.5 1016.0 0.0
20/11:00am 29.3 23.9 -4.2 11 14.8 ENE 15 28 8 15 1016.9 1016.4 0.0
20/10:30am 28.3 22.6 -3.8 12 14.2 NE 17 26 9 14 1017.3 1016.8 0.0
20/10:00am 28.1 22.1 -2.9 13 13.9 ENE 19 26 10 14 1017.6 1017.1 0.0
20/09:30am 26.5 20.9 -3.1 14 13.1 NE 17 26 9 14 1017.9 1017.4 0.0
20/09:00am 25.5 20.0 -2.1 16 12.3 ENE 17 24 9 13 1017.9 1017.4 0.0
20/08:30am 23.5 18.6 -0.7 20 10.9 E 15 20 8 11 1017.8 - 0.0
20/08:00am 21.3 15.9 -1.3 22 9.9 E 17 22 9 12 1017.7 1017.2 0.0
20/07:30am 18.2 14.9 -0.1 29 8.0 E 7 11 4 6 1017.6 - 0.0
20/07:00am 14.1 11.9 -1.9 33 6.4 CALM 0 0 0 0 1017.4 1016.9 0.0
20/06:30am 12.1 8.6 -1.1 40 5.3 ENE 7 7 4 4 1017.1 - 0.0
20/06:00am 9.3 7.0 -2.0 45 4.3 CALM 0 0 0 0 1016.8 1016.3 0.0
20/05:30am 11.2 7.6 -1.9 40 5.1 ENE 7 9 4 5 1016.6 - 0.0
20/05:00am 10.6 7.6 -2.1 41 4.9 NNE 4 9 2 5 1016.2 1015.7 0.0
20/04:30am 10.6 8.0 -1.8 42 4.8 NW 2 7 1 4 1016.0 - 0.0
20/04:00am 9.6 5.1 -3.3 40 4.8 N 11 11 6 6 1015.9 1015.4 0.0
20/03:30am 12.6 10.4 -1.3 38 5.6 CALM 0 0 0 0 1015.5 - 0.0
20/03:00am 11.9 9.2 -2.3 37 5.5 NNW 2 6 1 3 1015.4 1014.9 0.0
20/02:30am 11.5 8.4 -3.0 36 5.6 NNW 4 13 2 7 1015.5 - 0.0
20/02:00am 12.0 8.8 -3.8 33 6.0 WNW 4 11 2 6 1015.6 1015.1 0.0
20/01:30am 13.4 11.2 -1.7 35 6.1 CALM 0 0 0 0 1015.7 - 0.0
20/01:00am 13.3 11.1 -1.8 35 6.1 CALM 0 0 0 0 1015.7 1015.2 0.0
20/12:30am 15.3 11.8 -1.7 31 7.0 NNW 7 9 4 5 1015.9 - 0.0
20/12:00am 14.3 10.7 -2.2 32 6.6 NNW 7 9 4 5 1016.0 1015.5 0.0
 
Date/Time
WST
Temp
°C
App
Temp
°C
Dew
Point
Rel
Hum
%
Delta-T
°C
Wind Press
QNH
hPa
Press
MSL
hPa
Rain
since 9 am
mm
Dir
 
Spd
km/h
Gust
km/h
Spd
kts
Gust
kts
19/11:30pm 13.8 10.2 -1.8 34 6.3 N 7 9 4 5 1016.4 - 0.0
19/11:00pm 14.4 11.3 -2.5 31 6.7 NNW 4 9 2 5 1016.6 1016.1 0.0
19/10:30pm 16.6 14.5 -0.6 31 7.3 CALM 0 0 0 0 1016.5 - 0.0
19/10:00pm 19.2 15.3 -1.8 24 8.9 SSE 9 11 5 6 1016.6 1016.1 0.0
19/09:30pm 18.0 14.6 -0.8 28 8.1 SSE 7 9 4 5 1016.6 - 0.0
19/09:00pm 19.1 15.3 -0.8 26 8.6 SE 9 11 5 6 1016.5 1016.0 0.0
19/08:30pm 21.7 17.4 -1.6 21 10.2 SSE 11 13 6 7 1016.4 - 0.0
19/08:00pm 20.5 16.3 -0.7 24 9.3 SSE 11 11 6 6 1016.2 1015.7 0.0
19/07:30pm 23.2 18.8 -2.4 18 11.2 S 11 15 6 8 1015.9 - 0.0
19/07:00pm 24.5 19.8 -2.1 17 11.8 S 13 15 7 8 1015.5 1015.0 0.0
19/06:30pm 24.3 20.0 -1.5 18 11.5 SSE 11 13 6 7 1015.3 - 0.0
19/06:00pm 25.8 21.0 -2.8 15 12.6 S 13 15 7 8 1015.0 1014.5 0.0
19/05:30pm 26.9 22.5 -2.8 14 13.2 S 11 13 6 7 1014.7 - 0.0
19/05:00pm 28.8 25.6 -3.4 12 14.4 SE 4 9 2 5 1014.4 1013.9 0.0
19/04:30pm 29.6 26.0 -3.9 11 15.0 E 6 9 3 5 1014.2 - 0.0
19/04:00pm 29.7 25.4 -5.1 10 15.2 SSE 9 19 5 10 1014.1 1013.6 0.0

Other Formats:

Comma delimited format used in spreadsheet applications
http://www.bom.gov.au/fwo/IDW60801/IDW60801.94206.axf

JavaScript Object Notation format (JSON) in row-major order
http://www.bom.gov.au/fwo/IDW60801/IDW60801.94206.json